sensor_id;sensor_type;location;lat;lon;timestamp;P1;durP1;ratioP1;P2;durP2;ratioP2
51957;SDS011;41120;51.820;20.804;2023-04-24T00:04:46;14.73;;;9.93;;
51957;SDS011;41120;51.820;20.804;2023-04-24T00:07:26;12.40;;;9.52;;
51957;SDS011;41120;51.820;20.804;2023-04-24T00:09:56;14.38;;;10.10;;
51957;SDS011;41120;51.820;20.804;2023-04-24T00:12:32;13.50;;;9.52;;
51957;SDS011;41120;51.820;20.804;2023-04-24T00:15:00;13.50;;;10.32;;
51957;SDS011;41120;51.820;20.804;2023-04-24T00:17:33;15.93;;;9.63;;
51957;SDS011;41120;51.820;20.804;2023-04-24T00:22:42;12.07;;;9.18;;
51957;SDS011;41120;51.820;20.804;2023-04-24T00:25:15;13.68;;;9.88;;
51957;SDS011;41120;51.820;20.804;2023-04-24T00:27:51;16.83;;;10.00;;
51957;SDS011;41120;51.820;20.804;2023-04-24T00:30:18;14.65;;;10.05;;
51957;SDS011;41120;51.820;20.804;2023-04-24T00:35:40;13.85;;;10.43;;
51957;SDS011;41120;51.820;20.804;2023-04-24T00:38:06;12.83;;;9.27;;
51957;SDS011;41120;51.820;20.804;2023-04-24T00:40:34;14.90;;;9.63;;
51957;SDS011;41120;51.820;20.804;2023-04-24T00:43:01;14.27;;;9.82;;
51957;SDS011;41120;51.820;20.804;2023-04-24T00:45:36;14.30;;;9.40;;
51957;SDS011;41120;51.820;20.804;2023-04-24T00:48:04;11.47;;;8.53;;
51957;SDS011;41120;51.820;20.804;2023-04-24T00:50:30;12.93;;;9.40;;
51957;SDS011;41120;51.820;20.804;2023-04-24T00:55:56;13.67;;;9.03;;
51957;SDS011;41120;51.820;20.804;2023-04-24T00:58:24;12.43;;;9.03;;
51957;SDS011;41120;51.820;20.804;2023-04-24T01:00:51;12.33;;;9.50;;
51957;SDS011;41120;51.820;20.804;2023-04-24T01:03:25;15.17;;;9.00;;
51957;SDS011;41120;51.820;20.804;2023-04-24T01:11:05;13.00;;;9.30;;
51957;SDS011;41120;51.820;20.804;2023-04-24T01:16:45;13.60;;;8.50;;
51957;SDS011;41120;51.820;20.804;2023-04-24T01:19:16;12.00;;;8.90;;
51957;SDS011;41120;51.820;20.804;2023-04-24T01:24:22;12.50;;;8.07;;
51957;SDS011;41120;51.820;20.804;2023-04-24T01:29:39;11.23;;;8.03;;
51957;SDS011;41120;51.820;20.804;2023-04-24T01:32:17;12.70;;;8.70;;
51957;SDS011;41120;51.820;20.804;2023-04-24T01:34:49;14.10;;;8.77;;
51957;SDS011;41120;51.820;20.804;2023-04-24T01:40:16;11.77;;;8.53;;
51957;SDS011;41120;51.820;20.804;2023-04-24T01:42:48;12.53;;;8.40;;
51957;SDS011;41120;51.820;20.804;2023-04-24T01:45:16;12.45;;;9.25;;
51957;SDS011;41120;51.820;20.804;2023-04-24T01:47:55;12.73;;;8.57;;
51957;SDS011;41120;51.820;20.804;2023-04-24T01:50:21;12.43;;;9.03;;
51957;SDS011;41120;51.820;20.804;2023-04-24T01:52:54;15.50;;;9.50;;
51957;SDS011;41120;51.820;20.804;2023-04-24T01:55:23;17.65;;;9.90;;
51957;SDS011;41120;51.820;20.804;2023-04-24T02:02:58;16.50;;;11.13;;
51957;SDS011;41120;51.820;20.804;2023-04-24T02:07:57;17.80;;;10.35;;
51957;SDS011;41120;51.820;20.804;2023-04-24T02:10:39;15.52;;;10.70;;
51957;SDS011;41120;51.820;20.804;2023-04-24T02:18:53;15.40;;;11.43;;
51957;SDS011;41120;51.820;20.804;2023-04-24T02:21:20;20.48;;;11.38;;
51957;SDS011;41120;51.820;20.804;2023-04-24T02:24:01;14.15;;;11.20;;
51957;SDS011;41120;51.820;20.804;2023-04-24T02:26:29;19.95;;;11.52;;
51957;SDS011;41120;51.820;20.804;2023-04-24T02:29:01;17.75;;;11.65;;
51957;SDS011;41120;51.820;20.804;2023-04-24T02:31:33;15.60;;;11.32;;
51957;SDS011;41120;51.820;20.804;2023-04-24T02:34:12;18.67;;;11.27;;
51957;SDS011;41120;51.820;20.804;2023-04-24T02:42:59;20.20;;;11.85;;
51957;SDS011;41120;51.820;20.804;2023-04-24T02:48:50;18.90;;;12.60;;
51957;SDS011;41120;51.820;20.804;2023-04-24T02:53:44;18.88;;;11.35;;
51957;SDS011;41120;51.820;20.804;2023-04-24T02:59:07;17.25;;;12.43;;
51957;SDS011;41120;51.820;20.804;2023-04-24T03:01:35;15.38;;;12.18;;
51957;SDS011;41120;51.820;20.804;2023-04-24T03:04:01;17.00;;;11.82;;
51957;SDS011;41120;51.820;20.804;2023-04-24T03:06:34;18.75;;;11.90;;
51957;SDS011;41120;51.820;20.804;2023-04-24T03:09:06;15.38;;;11.88;;
51957;SDS011;41120;51.820;20.804;2023-04-24T03:11:33;18.13;;;11.95;;
51957;SDS011;41120;51.820;20.804;2023-04-24T03:13:59;16.60;;;12.20;;
51957;SDS011;41120;51.820;20.804;2023-04-24T03:19:17;21.00;;;12.77;;
51957;SDS011;41120;51.820;20.804;2023-04-24T03:21:44;17.08;;;11.95;;
51957;SDS011;41120;51.820;20.804;2023-04-24T03:24:18;18.77;;;12.20;;
51957;SDS011;41120;51.820;20.804;2023-04-24T03:26:58;16.52;;;11.50;;
51957;SDS011;41120;51.820;20.804;2023-04-24T03:29:27;17.08;;;12.80;;
51957;SDS011;41120;51.820;20.804;2023-04-24T03:32:07;18.60;;;11.77;;
51957;SDS011;41120;51.820;20.804;2023-04-24T03:34:34;22.00;;;12.88;;
51957;SDS011;41120;51.820;20.804;2023-04-24T03:37:03;18.75;;;11.90;;
51957;SDS011;41120;51.820;20.804;2023-04-24T03:39:47;15.73;;;12.32;;
51957;SDS011;41120;51.820;20.804;2023-04-24T03:47:41;17.85;;;12.43;;
51957;SDS011;41120;51.820;20.804;2023-04-24T03:50:07;18.50;;;13.25;;
51957;SDS011;41120;51.820;20.804;2023-04-24T03:55:39;17.58;;;12.93;;
51957;SDS011;41120;51.820;20.804;2023-04-24T04:00:43;16.45;;;12.60;;
51957;SDS011;41120;51.820;20.804;2023-04-24T04:03:11;18.73;;;12.60;;
51957;SDS011;41120;51.820;20.804;2023-04-24T04:05:43;20.20;;;12.13;;
51957;SDS011;41120;51.820;20.804;2023-04-24T04:08:10;20.48;;;11.93;;
51957;SDS011;41120;51.820;20.804;2023-04-24T04:10:39;14.75;;;11.32;;
51957;SDS011;41120;51.820;20.804;2023-04-24T04:15:50;15.47;;;10.33;;
51957;SDS011;41120;51.820;20.804;2023-04-24T04:18:16;14.35;;;10.60;;
51957;SDS011;41120;51.820;20.804;2023-04-24T04:20:42;16.20;;;11.43;;
51957;SDS011;41120;51.820;20.804;2023-04-24T04:28:17;17.50;;;11.07;;
51957;SDS011;41120;51.820;20.804;2023-04-24T04:30:57;16.80;;;10.67;;
51957;SDS011;41120;51.820;20.804;2023-04-24T04:33:24;14.47;;;10.40;;
51957;SDS011;41120;51.820;20.804;2023-04-24T04:38:53;15.43;;;11.13;;
51957;SDS011;41120;51.820;20.804;2023-04-24T04:41:21;16.33;;;11.23;;
51957;SDS011;41120;51.820;20.804;2023-04-24T04:43:54;15.90;;;11.10;;
51957;SDS011;41120;51.820;20.804;2023-04-24T04:46:22;18.17;;;11.53;;
51957;SDS011;41120;51.820;20.804;2023-04-24T04:48:54;16.03;;;10.57;;
51957;SDS011;41120;51.820;20.804;2023-04-24T04:51:24;14.20;;;10.67;;
51957;SDS011;41120;51.820;20.804;2023-04-24T04:53:52;19.67;;;11.20;;
51957;SDS011;41120;51.820;20.804;2023-04-24T04:56:18;18.03;;;11.47;;
51957;SDS011;41120;51.820;20.804;2023-04-24T05:01:36;17.13;;;10.60;;
51957;SDS011;41120;51.820;20.804;2023-04-24T05:04:09;16.03;;;10.63;;
51957;SDS011;41120;51.820;20.804;2023-04-24T05:06:37;15.20;;;10.03;;
51957;SDS011;41120;51.820;20.804;2023-04-24T05:09:08;16.20;;;9.80;;
51957;SDS011;41120;51.820;20.804;2023-04-24T05:11:38;14.73;;;10.10;;
51957;SDS011;41120;51.820;20.804;2023-04-24T05:14:10;13.93;;;9.90;;
51957;SDS011;41120;51.820;20.804;2023-04-24T05:16:38;11.70;;;9.67;;
51957;SDS011;41120;51.820;20.804;2023-04-24T05:22:01;14.60;;;10.80;;
51957;SDS011;41120;51.820;20.804;2023-04-24T05:24:29;17.17;;;11.00;;
51957;SDS011;41120;51.820;20.804;2023-04-24T05:26:56;15.20;;;11.60;;
51957;SDS011;41120;51.820;20.804;2023-04-24T05:29:36;18.00;;;12.50;;
51957;SDS011;41120;51.820;20.804;2023-04-24T05:32:02;17.53;;;11.67;;
51957;SDS011;41120;51.820;20.804;2023-04-24T05:36:58;15.90;;;11.13;;
51957;SDS011;41120;51.820;20.804;2023-04-24T05:39:26;13.67;;;9.93;;
51957;SDS011;41120;51.820;20.804;2023-04-24T05:44:51;16.97;;;10.17;;
51957;SDS011;41120;51.820;20.804;2023-04-24T05:47:20;16.80;;;10.70;;
51957;SDS011;41120;51.820;20.804;2023-04-24T05:49:53;14.90;;;10.20;;
51957;SDS011;41120;51.820;20.804;2023-04-24T05:52:25;15.45;;;10.27;;
51957;SDS011;41120;51.820;20.804;2023-04-24T05:54:53;13.30;;;9.83;;
51957;SDS011;41120;51.820;20.804;2023-04-24T05:57:21;13.80;;;10.10;;
51957;SDS011;41120;51.820;20.804;2023-04-24T05:59:55;13.93;;;9.80;;
51957;SDS011;41120;51.820;20.804;2023-04-24T06:02:22;12.97;;;9.40;;
51957;SDS011;41120;51.820;20.804;2023-04-24T06:04:49;13.27;;;9.87;;
51957;SDS011;41120;51.820;20.804;2023-04-24T06:07:19;13.00;;;9.57;;
51957;SDS011;41120;51.820;20.804;2023-04-24T06:12:31;12.80;;;9.17;;
51957;SDS011;41120;51.820;20.804;2023-04-24T06:14:59;13.90;;;9.37;;
51957;SDS011;41120;51.820;20.804;2023-04-24T06:17:26;15.73;;;9.20;;
51957;SDS011;41120;51.820;20.804;2023-04-24T06:19:59;12.43;;;8.30;;
51957;SDS011;41120;51.820;20.804;2023-04-24T06:22:35;13.63;;;7.68;;
51957;SDS011;41120;51.820;20.804;2023-04-24T06:30:11;13.53;;;9.57;;
51957;SDS011;41120;51.820;20.804;2023-04-24T06:32:39;10.27;;;7.67;;
51957;SDS011;41120;51.820;20.804;2023-04-24T06:40:17;11.48;;;7.88;;
51957;SDS011;41120;51.820;20.804;2023-04-24T06:42:44;12.30;;;7.68;;
51957;SDS011;41120;51.820;20.804;2023-04-24T06:45:15;10.85;;;7.70;;
51957;SDS011;41120;51.820;20.804;2023-04-24T06:47:44;10.18;;;7.13;;
51957;SDS011;41120;51.820;20.804;2023-04-24T06:50:10;11.57;;;8.95;;
51957;SDS011;41120;51.820;20.804;2023-04-24T06:52:49;9.57;;;7.82;;
51957;SDS011;41120;51.820;20.804;2023-04-24T06:55:17;8.63;;;6.90;;
51957;SDS011;41120;51.820;20.804;2023-04-24T06:57:43;8.00;;;6.45;;
51957;SDS011;41120;51.820;20.804;2023-04-24T07:00:19;9.75;;;6.05;;
51957;SDS011;41120;51.820;20.804;2023-04-24T07:02:53;10.02;;;6.07;;
51957;SDS011;41120;51.820;20.804;2023-04-24T07:05:19;9.27;;;6.90;;
51957;SDS011;41120;51.820;20.804;2023-04-24T07:07:47;8.93;;;6.97;;
51957;SDS011;41120;51.820;20.804;2023-04-24T07:15:18;9.90;;;7.20;;
51957;SDS011;41120;51.820;20.804;2023-04-24T07:17:48;11.33;;;7.23;;
51957;SDS011;41120;51.820;20.804;2023-04-24T07:22:46;13.90;;;7.90;;
51957;SDS011;41120;51.820;20.804;2023-04-24T07:25:19;11.40;;;7.43;;
51957;SDS011;41120;51.820;20.804;2023-04-24T07:27:50;10.55;;;7.82;;
51957;SDS011;41120;51.820;20.804;2023-04-24T07:30:17;10.10;;;8.02;;
51957;SDS011;41120;51.820;20.804;2023-04-24T07:32:53;11.98;;;7.55;;
51957;SDS011;41120;51.820;20.804;2023-04-24T07:35:23;10.13;;;7.77;;
51957;SDS011;41120;51.820;20.804;2023-04-24T07:37:54;13.77;;;8.00;;
51957;SDS011;41120;51.820;20.804;2023-04-24T07:40:33;9.60;;;7.20;;
51957;SDS011;41120;51.820;20.804;2023-04-24T07:43:01;10.30;;;7.30;;
51957;SDS011;41120;51.820;20.804;2023-04-24T07:45:30;10.53;;;7.20;;
51957;SDS011;41120;51.820;20.804;2023-04-24T07:48:01;8.73;;;7.33;;
51957;SDS011;41120;51.820;20.804;2023-04-24T07:50:31;9.90;;;7.40;;
51957;SDS011;41120;51.820;20.804;2023-04-24T07:52:57;11.57;;;6.90;;
51957;SDS011;41120;51.820;20.804;2023-04-24T07:58:00;8.87;;;6.70;;
51957;SDS011;41120;51.820;20.804;2023-04-24T08:00:30;9.60;;;6.30;;
51957;SDS011;41120;51.820;20.804;2023-04-24T08:02:58;9.98;;;6.65;;
51957;SDS011;41120;51.820;20.804;2023-04-24T08:05:32;10.90;;;6.35;;
51957;SDS011;41120;51.820;20.804;2023-04-24T08:08:01;8.93;;;5.90;;
51957;SDS011;41120;51.820;20.804;2023-04-24T08:10:28;8.27;;;6.07;;
51957;SDS011;41120;51.820;20.804;2023-04-24T08:12:56;8.30;;;5.55;;
51957;SDS011;41120;51.820;20.804;2023-04-24T08:15:31;8.57;;;6.05;;
51957;SDS011;41120;51.820;20.804;2023-04-24T08:18:12;9.13;;;6.00;;
51957;SDS011;41120;51.820;20.804;2023-04-24T08:23:27;7.90;;;5.80;;
51957;SDS011;41120;51.820;20.804;2023-04-24T08:31:35;6.00;;;4.90;;
51957;SDS011;41120;51.820;20.804;2023-04-24T08:37:15;9.47;;;5.40;;
51957;SDS011;41120;51.820;20.804;2023-04-24T08:39:53;9.03;;;5.77;;
51957;SDS011;41120;51.820;20.804;2023-04-24T08:42:20;7.03;;;6.17;;
51957;SDS011;41120;51.820;20.804;2023-04-24T08:47:35;11.53;;;6.30;;
51957;SDS011;41120;51.820;20.804;2023-04-24T08:50:03;9.82;;;5.80;;
51957;SDS011;41120;51.820;20.804;2023-04-24T08:52:43;7.57;;;5.00;;
51957;SDS011;41120;51.820;20.804;2023-04-24T08:57:54;6.63;;;4.83;;
51957;SDS011;41120;51.820;20.804;2023-04-24T09:05:33;8.67;;;5.80;;
51957;SDS011;41120;51.820;20.804;2023-04-24T09:08:05;8.57;;;5.63;;
51957;SDS011;41120;51.820;20.804;2023-04-24T09:16:20;6.60;;;4.57;;
51957;SDS011;41120;51.820;20.804;2023-04-24T09:18:46;5.67;;;4.70;;
51957;SDS011;41120;51.820;20.804;2023-04-24T09:24:04;6.53;;;4.83;;
51957;SDS011;41120;51.820;20.804;2023-04-24T09:26:39;7.68;;;5.10;;
51957;SDS011;41120;51.820;20.804;2023-04-24T09:29:07;7.77;;;4.73;;
51957;SDS011;41120;51.820;20.804;2023-04-24T09:31:43;7.90;;;5.53;;
51957;SDS011;41120;51.820;20.804;2023-04-24T09:34:19;6.60;;;5.10;;
51957;SDS011;41120;51.820;20.804;2023-04-24T09:36:46;7.57;;;5.33;;
51957;SDS011;41120;51.820;20.804;2023-04-24T09:47:51;6.80;;;4.43;;
51957;SDS011;41120;51.820;20.804;2023-04-24T09:50:17;6.67;;;4.83;;
51957;SDS011;41120;51.820;20.804;2023-04-24T09:52:55;9.00;;;4.03;;
51957;SDS011;41120;51.820;20.804;2023-04-24T09:55:33;6.57;;;4.40;;
51957;SDS011;41120;51.820;20.804;2023-04-24T09:58:13;5.53;;;4.93;;
51957;SDS011;41120;51.820;20.804;2023-04-24T10:00:40;7.83;;;5.10;;
51957;SDS011;41120;51.820;20.804;2023-04-24T10:03:14;11.13;;;4.80;;
51957;SDS011;41120;51.820;20.804;2023-04-24T10:05:47;4.80;;;4.27;;
51957;SDS011;41120;51.820;20.804;2023-04-24T10:08:24;7.10;;;4.57;;
51957;SDS011;41120;51.820;20.804;2023-04-24T10:10:53;7.53;;;4.43;;
51957;SDS011;41120;51.820;20.804;2023-04-24T10:13:19;8.10;;;4.80;;
51957;SDS011;41120;51.820;20.804;2023-04-24T10:15:52;7.17;;;4.27;;
51957;SDS011;41120;51.820;20.804;2023-04-24T10:20:55;5.37;;;3.80;;
51957;SDS011;41120;51.820;20.804;2023-04-24T10:23:21;5.33;;;4.27;;
51957;SDS011;41120;51.820;20.804;2023-04-24T10:28:24;9.13;;;5.00;;
51957;SDS011;41120;51.820;20.804;2023-04-24T10:30:54;5.20;;;4.10;;
51957;SDS011;41120;51.820;20.804;2023-04-24T10:33:22;8.43;;;4.50;;
51957;SDS011;41120;51.820;20.804;2023-04-24T10:35:56;4.50;;;4.07;;
51957;SDS011;41120;51.820;20.804;2023-04-24T10:38:25;5.50;;;3.60;;
51957;SDS011;41120;51.820;20.804;2023-04-24T10:41:09;5.87;;;3.80;;
51957;SDS011;41120;51.820;20.804;2023-04-24T10:46:08;6.33;;;4.53;;
51957;SDS011;41120;51.820;20.804;2023-04-24T10:48:35;6.27;;;4.53;;
51957;SDS011;41120;51.820;20.804;2023-04-24T10:51:10;7.83;;;4.50;;
51957;SDS011;41120;51.820;20.804;2023-04-24T10:53:38;7.43;;;5.30;;
51957;SDS011;41120;51.820;20.804;2023-04-24T10:56:06;8.20;;;5.40;;
51957;SDS011;41120;51.820;20.804;2023-04-24T11:09:21;7.97;;;5.20;;
51957;SDS011;41120;51.820;20.804;2023-04-24T11:11:50;7.03;;;5.23;;
51957;SDS011;41120;51.820;20.804;2023-04-24T11:17:30;10.60;;;6.03;;
51957;SDS011;41120;51.820;20.804;2023-04-24T11:20:05;8.90;;;5.05;;
51957;SDS011;41120;51.820;20.804;2023-04-24T11:22:52;7.40;;;4.20;;
51957;SDS011;41120;51.820;20.804;2023-04-24T11:25:23;7.47;;;4.23;;
51957;SDS011;41120;51.820;20.804;2023-04-24T11:27:51;7.90;;;4.17;;
51957;SDS011;41120;51.820;20.804;2023-04-24T11:30:34;8.43;;;4.63;;
51957;SDS011;41120;51.820;20.804;2023-04-24T11:33:11;10.70;;;4.27;;
51957;SDS011;41120;51.820;20.804;2023-04-24T11:35:41;7.70;;;4.53;;
51957;SDS011;41120;51.820;20.804;2023-04-24T11:38:09;8.13;;;4.00;;
51957;SDS011;41120;51.820;20.804;2023-04-24T11:40:52;7.10;;;4.63;;
51957;SDS011;41120;51.820;20.804;2023-04-24T11:48:36;7.83;;;5.10;;
51957;SDS011;41120;51.820;20.804;2023-04-24T11:51:05;8.13;;;6.03;;
51957;SDS011;41120;51.820;20.804;2023-04-24T11:53:37;7.67;;;5.30;;
51957;SDS011;41120;51.820;20.804;2023-04-24T11:56:05;10.60;;;5.55;;
51957;SDS011;41120;51.820;20.804;2023-04-24T12:01:24;9.43;;;5.80;;
51957;SDS011;41120;51.820;20.804;2023-04-24T12:03:51;10.93;;;5.60;;
51957;SDS011;41120;51.820;20.804;2023-04-24T12:06:27;11.70;;;5.23;;
51957;SDS011;41120;51.820;20.804;2023-04-24T12:08:53;10.43;;;5.87;;
51957;SDS011;41120;51.820;20.804;2023-04-24T12:11:30;8.57;;;5.87;;
51957;SDS011;41120;51.820;20.804;2023-04-24T12:14:09;10.53;;;5.53;;
51957;SDS011;41120;51.820;20.804;2023-04-24T12:16:47;8.47;;;5.10;;
51957;SDS011;41120;51.820;20.804;2023-04-24T12:19:17;7.70;;;5.80;;
51957;SDS011;41120;51.820;20.804;2023-04-24T12:21:44;5.87;;;5.20;;
51957;SDS011;41120;51.820;20.804;2023-04-24T12:24:24;6.30;;;4.87;;
51957;SDS011;41120;51.820;20.804;2023-04-24T12:26:50;6.17;;;5.30;;
51957;SDS011;41120;51.820;20.804;2023-04-24T12:29:20;6.67;;;5.00;;
51957;SDS011;41120;51.820;20.804;2023-04-24T12:31:46;5.70;;;4.60;;
51957;SDS011;41120;51.820;20.804;2023-04-24T12:37:20;8.17;;;5.47;;
51957;SDS011;41120;51.820;20.804;2023-04-24T12:40:03;8.03;;;5.77;;
51957;SDS011;41120;51.820;20.804;2023-04-24T12:42:35;9.85;;;6.13;;
51957;SDS011;41120;51.820;20.804;2023-04-24T12:45:16;8.73;;;6.50;;
51957;SDS011;41120;51.820;20.804;2023-04-24T12:47:44;8.80;;;5.30;;
51957;SDS011;41120;51.820;20.804;2023-04-24T12:50:11;7.33;;;5.47;;
51957;SDS011;41120;51.820;20.804;2023-04-24T12:52:37;5.33;;;4.53;;
51957;SDS011;41120;51.820;20.804;2023-04-24T12:55:05;6.30;;;5.00;;
51957;SDS011;41120;51.820;20.804;2023-04-24T12:57:39;5.30;;;4.80;;
51957;SDS011;41120;51.820;20.804;2023-04-24T13:03:04;3.93;;;2.67;;
51957;SDS011;41120;51.820;20.804;2023-04-24T13:05:30;4.50;;;3.57;;
51957;SDS011;41120;51.820;20.804;2023-04-24T13:07:58;4.20;;;3.47;;
51957;SDS011;41120;51.820;20.804;2023-04-24T13:10:24;4.53;;;4.07;;
51957;SDS011;41120;51.820;20.804;2023-04-24T13:15:19;5.17;;;3.60;;
51957;SDS011;41120;51.820;20.804;2023-04-24T13:17:54;3.97;;;2.90;;
51957;SDS011;41120;51.820;20.804;2023-04-24T13:20:26;4.80;;;3.20;;
51957;SDS011;41120;51.820;20.804;2023-04-24T13:22:57;5.53;;;3.47;;
51957;SDS011;41120;51.820;20.804;2023-04-24T13:25:25;3.97;;;3.23;;
51957;SDS011;41120;51.820;20.804;2023-04-24T13:27:52;5.60;;;3.20;;
51957;SDS011;41120;51.820;20.804;2023-04-24T13:30:26;3.60;;;2.73;;
51957;SDS011;41120;51.820;20.804;2023-04-24T13:32:53;5.03;;;3.00;;
51957;SDS011;41120;51.820;20.804;2023-04-24T13:35:19;3.57;;;3.10;;
51957;SDS011;41120;51.820;20.804;2023-04-24T13:37:47;5.63;;;3.00;;
51957;SDS011;41120;51.820;20.804;2023-04-24T13:40:26;4.07;;;3.03;;
51957;SDS011;41120;51.820;20.804;2023-04-24T13:42:53;3.63;;;2.83;;
51957;SDS011;41120;51.820;20.804;2023-04-24T13:48:10;5.03;;;3.17;;
51957;SDS011;41120;51.820;20.804;2023-04-24T13:50:36;4.30;;;3.13;;
51957;SDS011;41120;51.820;20.804;2023-04-24T13:53:05;4.87;;;3.20;;
51957;SDS011;41120;51.820;20.804;2023-04-24T13:55:33;4.73;;;3.30;;
51957;SDS011;41120;51.820;20.804;2023-04-24T13:58:00;5.83;;;3.20;;
51957;SDS011;41120;51.820;20.804;2023-04-24T14:00:29;6.03;;;3.47;;
51957;SDS011;41120;51.820;20.804;2023-04-24T14:03:03;5.47;;;3.50;;
51957;SDS011;41120;51.820;20.804;2023-04-24T14:07:59;4.40;;;3.60;;
51957;SDS011;41120;51.820;20.804;2023-04-24T14:10:26;4.83;;;3.90;;
51957;SDS011;41120;51.820;20.804;2023-04-24T14:12:54;12.53;;;7.03;;
51957;SDS011;41120;51.820;20.804;2023-04-24T14:20:58;3.83;;;3.30;;
51957;SDS011;41120;51.820;20.804;2023-04-24T14:26:09;4.53;;;3.33;;
51957;SDS011;41120;51.820;20.804;2023-04-24T14:28:35;3.47;;;3.13;;
51957;SDS011;41120;51.820;20.804;2023-04-24T14:31:09;4.00;;;3.27;;
51957;SDS011;41120;51.820;20.804;2023-04-24T14:33:37;3.73;;;3.10;;
51957;SDS011;41120;51.820;20.804;2023-04-24T14:36:10;6.30;;;3.33;;
51957;SDS011;41120;51.820;20.804;2023-04-24T14:38:36;5.23;;;3.70;;
51957;SDS011;41120;51.820;20.804;2023-04-24T14:41:11;5.83;;;4.23;;
51957;SDS011;41120;51.820;20.804;2023-04-24T14:43:37;5.07;;;3.90;;
51957;SDS011;41120;51.820;20.804;2023-04-24T14:46:11;6.80;;;4.23;;
51957;SDS011;41120;51.820;20.804;2023-04-24T14:48:38;7.35;;;4.60;;
51957;SDS011;41120;51.820;20.804;2023-04-24T14:51:04;8.23;;;4.40;;
51957;SDS011;41120;51.820;20.804;2023-04-24T14:53:31;7.30;;;4.40;;
51957;SDS011;41120;51.820;20.804;2023-04-24T14:56:03;7.60;;;4.40;;
51957;SDS011;41120;51.820;20.804;2023-04-24T14:58:34;7.03;;;4.57;;
51957;SDS011;41120;51.820;20.804;2023-04-24T15:01:03;6.67;;;4.30;;
51957;SDS011;41120;51.820;20.804;2023-04-24T15:08:48;10.07;;;4.67;;
51957;SDS011;41120;51.820;20.804;2023-04-24T15:16:34;7.63;;;4.00;;
51957;SDS011;41120;51.820;20.804;2023-04-24T15:19:07;6.72;;;4.13;;
51957;SDS011;41120;51.820;20.804;2023-04-24T15:21:33;5.70;;;3.80;;
51957;SDS011;41120;51.820;20.804;2023-04-24T15:24:17;4.50;;;4.00;;
51957;SDS011;41120;51.820;20.804;2023-04-24T15:26:50;4.53;;;3.63;;
51957;SDS011;41120;51.820;20.804;2023-04-24T15:29:33;5.37;;;3.50;;
51957;SDS011;41120;51.820;20.804;2023-04-24T15:32:11;7.37;;;3.80;;
51957;SDS011;41120;51.820;20.804;2023-04-24T15:34:53;5.20;;;3.70;;
51957;SDS011;41120;51.820;20.804;2023-04-24T15:37:26;3.90;;;3.40;;
51957;SDS011;41120;51.820;20.804;2023-04-24T15:42:45;5.23;;;3.40;;
51957;SDS011;41120;51.820;20.804;2023-04-24T15:48:22;4.13;;;3.43;;
51957;SDS011;41120;51.820;20.804;2023-04-24T15:50:50;5.43;;;3.50;;
51957;SDS011;41120;51.820;20.804;2023-04-24T15:53:26;4.53;;;3.47;;
51957;SDS011;41120;51.820;20.804;2023-04-24T15:55:53;4.80;;;3.73;;
51957;SDS011;41120;51.820;20.804;2023-04-24T16:01:27;6.20;;;3.87;;
51957;SDS011;41120;51.820;20.804;2023-04-24T16:04:00;4.17;;;3.57;;
51957;SDS011;41120;51.820;20.804;2023-04-24T16:06:26;6.27;;;4.00;;
51957;SDS011;41120;51.820;20.804;2023-04-24T16:08:54;9.27;;;3.97;;
51957;SDS011;41120;51.820;20.804;2023-04-24T16:11:21;8.03;;;4.57;;
51957;SDS011;41120;51.820;20.804;2023-04-24T16:13:47;7.37;;;5.37;;
51957;SDS011;41120;51.820;20.804;2023-04-24T16:16:13;7.47;;;4.57;;
51957;SDS011;41120;51.820;20.804;2023-04-24T16:18:40;7.87;;;5.00;;
51957;SDS011;41120;51.820;20.804;2023-04-24T16:21:06;6.03;;;4.80;;
51957;SDS011;41120;51.820;20.804;2023-04-24T16:23:34;8.17;;;4.73;;
51957;SDS011;41120;51.820;20.804;2023-04-24T16:26:03;8.07;;;4.93;;
51957;SDS011;41120;51.820;20.804;2023-04-24T16:28:30;8.70;;;5.40;;
51957;SDS011;41120;51.820;20.804;2023-04-24T16:31:08;10.13;;;5.33;;
51957;SDS011;41120;51.820;20.804;2023-04-24T16:33:36;11.23;;;5.17;;
51957;SDS011;41120;51.820;20.804;2023-04-24T16:38:37;8.00;;;5.20;;
51957;SDS011;41120;51.820;20.804;2023-04-24T16:41:03;9.27;;;5.60;;
